sensor_id;sensor_type;location;lat;lon;timestamp;P1;durP1;ratioP1;P2;durP2;ratioP2
17361;SDS011;8798;51.938;4.348;2022-09-06T00:01:08;2.30;;;1.23;;
17361;SDS011;8798;51.938;4.348;2022-09-06T00:03:37;3.13;;;1.30;;
17361;SDS011;8798;51.938;4.348;2022-09-06T00:06:06;1.90;;;1.30;;
17361;SDS011;8798;51.938;4.348;2022-09-06T00:08:37;2.10;;;1.10;;
17361;SDS011;8798;51.938;4.348;2022-09-06T00:11:05;1.40;;;0.93;;
17361;SDS011;8798;51.938;4.348;2022-09-06T00:13:33;1.87;;;1.00;;
17361;SDS011;8798;51.938;4.348;2022-09-06T00:16:05;1.10;;;0.90;;
17361;SDS011;8798;51.938;4.348;2022-09-06T00:18:34;1.13;;;0.90;;
17361;SDS011;8798;51.938;4.348;2022-09-06T00:21:03;2.53;;;0.90;;
17361;SDS011;8798;51.938;4.348;2022-09-06T00:23:31;1.13;;;0.80;;
17361;SDS011;8798;51.938;4.348;2022-09-06T00:26:03;2.13;;;0.87;;
17361;SDS011;8798;51.938;4.348;2022-09-06T00:28:31;0.80;;;0.80;;
17361;SDS011;8798;51.938;4.348;2022-09-06T00:31:06;2.10;;;1.00;;
17361;SDS011;8798;51.938;4.348;2022-09-06T00:33:35;1.47;;;1.00;;
17361;SDS011;8798;51.938;4.348;2022-09-06T00:36:03;2.03;;;1.17;;
17361;SDS011;8798;51.938;4.348;2022-09-06T00:38:31;1.77;;;0.97;;
17361;SDS011;8798;51.938;4.348;2022-09-06T00:41:00;2.60;;;0.80;;
17361;SDS011;8798;51.938;4.348;2022-09-06T00:43:29;2.17;;;1.00;;
17361;SDS011;8798;51.938;4.348;2022-09-06T00:45:57;1.20;;;1.07;;
17361;SDS011;8798;51.938;4.348;2022-09-06T00:48:25;1.33;;;0.80;;
17361;SDS011;8798;51.938;4.348;2022-09-06T00:50:54;1.33;;;0.97;;
17361;SDS011;8798;51.938;4.348;2022-09-06T00:53:25;2.93;;;1.07;;
17361;SDS011;8798;51.938;4.348;2022-09-06T00:55:53;1.57;;;1.00;;
17361;SDS011;8798;51.938;4.348;2022-09-06T00:58:22;4.00;;;0.90;;
17361;SDS011;8798;51.938;4.348;2022-09-06T01:00:52;0.97;;;0.80;;
17361;SDS011;8798;51.938;4.348;2022-09-06T01:03:20;1.00;;;0.60;;
17361;SDS011;8798;51.938;4.348;2022-09-06T01:05:52;1.17;;;0.77;;
17361;SDS011;8798;51.938;4.348;2022-09-06T01:08:29;1.47;;;1.00;;
17361;SDS011;8798;51.938;4.348;2022-09-06T01:11:09;1.63;;;0.90;;
17361;SDS011;8798;51.938;4.348;2022-09-06T01:13:52;1.67;;;0.80;;
17361;SDS011;8798;51.938;4.348;2022-09-06T01:16:30;5.03;;;1.13;;
17361;SDS011;8798;51.938;4.348;2022-09-06T01:19:13;2.13;;;1.30;;
17361;SDS011;8798;51.938;4.348;2022-09-06T01:22:00;3.00;;;1.57;;
17361;SDS011;8798;51.938;4.348;2022-09-06T01:30:36;2.40;;;1.67;;
17361;SDS011;8798;51.938;4.348;2022-09-06T01:33:13;3.40;;;1.73;;
17361;SDS011;8798;51.938;4.348;2022-09-06T01:35:47;3.70;;;1.90;;
17361;SDS011;8798;51.938;4.348;2022-09-06T01:38:17;2.33;;;1.57;;
17361;SDS011;8798;51.938;4.348;2022-09-06T01:40:45;3.20;;;1.87;;
17361;SDS011;8798;51.938;4.348;2022-09-06T01:43:16;2.47;;;1.70;;
17361;SDS011;8798;51.938;4.348;2022-09-06T01:45:50;3.67;;;1.60;;
17361;SDS011;8798;51.938;4.348;2022-09-06T01:48:29;1.80;;;1.40;;
17361;SDS011;8798;51.938;4.348;2022-09-06T01:51:08;1.47;;;1.10;;
17361;SDS011;8798;51.938;4.348;2022-09-06T01:56:55;3.33;;;1.60;;
17361;SDS011;8798;51.938;4.348;2022-09-06T02:02:31;2.47;;;1.50;;
17361;SDS011;8798;51.938;4.348;2022-09-06T02:05:08;1.80;;;1.40;;
17361;SDS011;8798;51.938;4.348;2022-09-06T02:07:39;3.67;;;1.50;;
17361;SDS011;8798;51.938;4.348;2022-09-06T02:10:13;1.87;;;1.50;;
17361;SDS011;8798;51.938;4.348;2022-09-06T02:12:46;2.43;;;1.50;;
17361;SDS011;8798;51.938;4.348;2022-09-06T02:15:20;2.13;;;1.50;;
17361;SDS011;8798;51.938;4.348;2022-09-06T02:17:52;3.17;;;1.70;;
17361;SDS011;8798;51.938;4.348;2022-09-06T02:20:26;2.00;;;1.80;;
17361;SDS011;8798;51.938;4.348;2022-09-06T02:22:58;3.00;;;1.83;;
17361;SDS011;8798;51.938;4.348;2022-09-06T02:25:29;2.40;;;1.73;;
17361;SDS011;8798;51.938;4.348;2022-09-06T02:28:01;2.63;;;1.90;;
17361;SDS011;8798;51.938;4.348;2022-09-06T02:30:31;2.00;;;1.63;;
17361;SDS011;8798;51.938;4.348;2022-09-06T02:33:02;2.50;;;1.50;;
17361;SDS011;8798;51.938;4.348;2022-09-06T02:35:40;2.97;;;1.60;;
17361;SDS011;8798;51.938;4.348;2022-09-06T02:38:09;4.17;;;1.97;;
17361;SDS011;8798;51.938;4.348;2022-09-06T02:40:37;2.63;;;1.90;;
17361;SDS011;8798;51.938;4.348;2022-09-06T02:43:05;2.30;;;1.93;;
17361;SDS011;8798;51.938;4.348;2022-09-06T02:45:35;2.97;;;1.77;;
17361;SDS011;8798;51.938;4.348;2022-09-06T02:48:03;3.23;;;1.77;;
17361;SDS011;8798;51.938;4.348;2022-09-06T02:50:31;2.67;;;2.07;;
17361;SDS011;8798;51.938;4.348;2022-09-06T02:53:02;3.43;;;1.90;;
17361;SDS011;8798;51.938;4.348;2022-09-06T02:55:31;2.60;;;2.00;;
17361;SDS011;8798;51.938;4.348;2022-09-06T02:57:59;2.80;;;1.93;;
17361;SDS011;8798;51.938;4.348;2022-09-06T03:00:28;3.30;;;1.83;;
17361;SDS011;8798;51.938;4.348;2022-09-06T03:02:58;4.23;;;2.10;;
17361;SDS011;8798;51.938;4.348;2022-09-06T03:05:26;3.40;;;1.87;;
17361;SDS011;8798;51.938;4.348;2022-09-06T03:07:54;3.53;;;2.30;;
17361;SDS011;8798;51.938;4.348;2022-09-06T03:10:23;2.83;;;1.90;;
17361;SDS011;8798;51.938;4.348;2022-09-06T03:12:51;3.77;;;2.20;;
17361;SDS011;8798;51.938;4.348;2022-09-06T03:15:19;3.47;;;1.70;;
17361;SDS011;8798;51.938;4.348;2022-09-06T03:17:47;2.83;;;2.10;;
17361;SDS011;8798;51.938;4.348;2022-09-06T03:20:16;2.47;;;2.10;;
17361;SDS011;8798;51.938;4.348;2022-09-06T03:22:44;2.00;;;1.63;;
17361;SDS011;8798;51.938;4.348;2022-09-06T03:25:12;2.47;;;1.77;;
17361;SDS011;8798;51.938;4.348;2022-09-06T03:27:40;2.33;;;1.80;;
17361;SDS011;8798;51.938;4.348;2022-09-06T03:30:08;2.83;;;2.13;;
17361;SDS011;8798;51.938;4.348;2022-09-06T03:32:36;3.63;;;1.90;;
17361;SDS011;8798;51.938;4.348;2022-09-06T03:35:04;2.67;;;2.07;;
17361;SDS011;8798;51.938;4.348;2022-09-06T03:37:34;4.37;;;2.50;;
17361;SDS011;8798;51.938;4.348;2022-09-06T03:40:02;5.37;;;2.53;;
17361;SDS011;8798;51.938;4.348;2022-09-06T03:42:30;3.97;;;2.37;;
17361;SDS011;8798;51.938;4.348;2022-09-06T03:44:57;4.33;;;2.73;;
17361;SDS011;8798;51.938;4.348;2022-09-06T03:47:25;4.37;;;2.70;;
17361;SDS011;8798;51.938;4.348;2022-09-06T03:49:53;4.30;;;2.53;;
17361;SDS011;8798;51.938;4.348;2022-09-06T03:52:21;3.43;;;2.47;;
17361;SDS011;8798;51.938;4.348;2022-09-06T03:54:50;3.50;;;2.53;;
17361;SDS011;8798;51.938;4.348;2022-09-06T03:57:17;3.77;;;2.57;;
17361;SDS011;8798;51.938;4.348;2022-09-06T03:59:45;3.23;;;2.30;;
17361;SDS011;8798;51.938;4.348;2022-09-06T04:02:13;3.27;;;2.63;;
17361;SDS011;8798;51.938;4.348;2022-09-06T04:04:41;4.83;;;2.80;;
17361;SDS011;8798;51.938;4.348;2022-09-06T04:07:09;10.63;;;3.20;;
17361;SDS011;8798;51.938;4.348;2022-09-06T04:09:37;3.10;;;2.60;;
17361;SDS011;8798;51.938;4.348;2022-09-06T04:12:06;3.57;;;2.60;;
17361;SDS011;8798;51.938;4.348;2022-09-06T04:14:34;3.77;;;2.67;;
17361;SDS011;8798;51.938;4.348;2022-09-06T04:17:01;3.00;;;2.33;;
17361;SDS011;8798;51.938;4.348;2022-09-06T04:19:29;4.17;;;2.57;;
17361;SDS011;8798;51.938;4.348;2022-09-06T04:21:57;3.70;;;3.03;;
17361;SDS011;8798;51.938;4.348;2022-09-06T04:24:25;4.10;;;2.40;;
17361;SDS011;8798;51.938;4.348;2022-09-06T04:26:52;4.90;;;2.67;;
17361;SDS011;8798;51.938;4.348;2022-09-06T04:29:21;5.67;;;2.90;;
17361;SDS011;8798;51.938;4.348;2022-09-06T04:31:49;3.20;;;2.53;;
17361;SDS011;8798;51.938;4.348;2022-09-06T04:34:17;6.70;;;3.03;;
17361;SDS011;8798;51.938;4.348;2022-09-06T04:36:45;3.80;;;2.53;;
17361;SDS011;8798;51.938;4.348;2022-09-06T04:39:13;5.97;;;2.80;;
17361;SDS011;8798;51.938;4.348;2022-09-06T04:41:41;3.70;;;3.07;;
17361;SDS011;8798;51.938;4.348;2022-09-06T04:44:09;4.93;;;2.63;;
17361;SDS011;8798;51.938;4.348;2022-09-06T04:46:39;4.60;;;3.07;;
17361;SDS011;8798;51.938;4.348;2022-09-06T04:49:07;5.57;;;3.10;;
17361;SDS011;8798;51.938;4.348;2022-09-06T04:51:35;4.10;;;2.67;;
17361;SDS011;8798;51.938;4.348;2022-09-06T04:54:04;4.70;;;2.90;;
17361;SDS011;8798;51.938;4.348;2022-09-06T04:56:32;3.67;;;2.90;;
17361;SDS011;8798;51.938;4.348;2022-09-06T04:59:00;4.70;;;3.30;;
17361;SDS011;8798;51.938;4.348;2022-09-06T05:01:28;5.17;;;2.83;;
17361;SDS011;8798;51.938;4.348;2022-09-06T05:03:57;3.53;;;2.80;;
17361;SDS011;8798;51.938;4.348;2022-09-06T05:06:25;4.00;;;2.87;;
17361;SDS011;8798;51.938;4.348;2022-09-06T05:08:52;8.37;;;3.27;;
17361;SDS011;8798;51.938;4.348;2022-09-06T05:11:20;4.53;;;3.17;;
17361;SDS011;8798;51.938;4.348;2022-09-06T05:13:48;3.60;;;2.90;;
17361;SDS011;8798;51.938;4.348;2022-09-06T05:16:16;4.50;;;3.10;;
17361;SDS011;8798;51.938;4.348;2022-09-06T05:18:44;6.07;;;3.43;;
17361;SDS011;8798;51.938;4.348;2022-09-06T05:21:13;4.00;;;3.10;;
17361;SDS011;8798;51.938;4.348;2022-09-06T05:23:41;4.57;;;3.60;;
17361;SDS011;8798;51.938;4.348;2022-09-06T05:26:09;5.13;;;3.00;;
17361;SDS011;8798;51.938;4.348;2022-09-06T05:28:37;4.17;;;3.20;;
17361;SDS011;8798;51.938;4.348;2022-09-06T05:31:06;5.30;;;3.53;;
17361;SDS011;8798;51.938;4.348;2022-09-06T05:33:34;5.03;;;3.97;;
17361;SDS011;8798;51.938;4.348;2022-09-06T05:36:02;8.83;;;4.40;;
17361;SDS011;8798;51.938;4.348;2022-09-06T05:38:32;6.17;;;4.47;;
17361;SDS011;8798;51.938;4.348;2022-09-06T05:41:00;8.13;;;5.00;;
17361;SDS011;8798;51.938;4.348;2022-09-06T05:43:28;9.53;;;5.17;;
17361;SDS011;8798;51.938;4.348;2022-09-06T05:45:56;9.03;;;4.90;;
17361;SDS011;8798;51.938;4.348;2022-09-06T05:48:24;7.57;;;4.47;;
17361;SDS011;8798;51.938;4.348;2022-09-06T05:50:58;7.60;;;4.90;;
17361;SDS011;8798;51.938;4.348;2022-09-06T05:53:33;6.97;;;5.07;;
17361;SDS011;8798;51.938;4.348;2022-09-06T05:56:02;7.57;;;5.00;;
17361;SDS011;8798;51.938;4.348;2022-09-06T05:58:30;7.50;;;5.27;;
17361;SDS011;8798;51.938;4.348;2022-09-06T06:01:05;6.10;;;4.70;;
17361;SDS011;8798;51.938;4.348;2022-09-06T06:03:34;5.90;;;4.10;;
17361;SDS011;8798;51.938;4.348;2022-09-06T06:06:02;5.97;;;4.57;;
17361;SDS011;8798;51.938;4.348;2022-09-06T06:08:30;6.70;;;4.30;;
17361;SDS011;8798;51.938;4.348;2022-09-06T06:10:59;7.87;;;4.83;;
17361;SDS011;8798;51.938;4.348;2022-09-06T06:13:28;6.70;;;4.33;;
17361;SDS011;8798;51.938;4.348;2022-09-06T06:16:00;8.27;;;5.20;;
17361;SDS011;8798;51.938;4.348;2022-09-06T06:18:28;6.90;;;4.27;;
17361;SDS011;8798;51.938;4.348;2022-09-06T06:21:05;6.67;;;4.43;;
17361;SDS011;8798;51.938;4.348;2022-09-06T06:23:34;8.30;;;4.60;;
17361;SDS011;8798;51.938;4.348;2022-09-06T06:26:04;6.73;;;4.40;;
17361;SDS011;8798;51.938;4.348;2022-09-06T06:28:33;7.50;;;4.67;;
17361;SDS011;8798;51.938;4.348;2022-09-06T06:31:01;6.77;;;5.10;;
17361;SDS011;8798;51.938;4.348;2022-09-06T06:33:29;6.97;;;4.37;;
17361;SDS011;8798;51.938;4.348;2022-09-06T06:35:58;6.47;;;4.77;;
17361;SDS011;8798;51.938;4.348;2022-09-06T06:38:30;7.27;;;4.60;;
17361;SDS011;8798;51.938;4.348;2022-09-06T06:40:58;7.73;;;4.63;;
17361;SDS011;8798;51.938;4.348;2022-09-06T06:43:33;6.10;;;4.80;;
17361;SDS011;8798;51.938;4.348;2022-09-06T06:46:03;7.00;;;4.60;;
17361;SDS011;8798;51.938;4.348;2022-09-06T06:48:31;8.00;;;4.70;;
17361;SDS011;8798;51.938;4.348;2022-09-06T06:50:59;6.40;;;4.27;;
17361;SDS011;8798;51.938;4.348;2022-09-06T06:53:27;5.60;;;4.27;;
17361;SDS011;8798;51.938;4.348;2022-09-06T06:55:55;7.60;;;3.97;;
17361;SDS011;8798;51.938;4.348;2022-09-06T06:58:23;5.67;;;3.87;;
17361;SDS011;8798;51.938;4.348;2022-09-06T07:00:52;6.70;;;4.03;;
17361;SDS011;8798;51.938;4.348;2022-09-06T07:03:20;4.40;;;3.30;;
17361;SDS011;8798;51.938;4.348;2022-09-06T07:05:48;7.73;;;4.20;;
17361;SDS011;8798;51.938;4.348;2022-09-06T07:08:36;6.43;;;3.40;;
17361;SDS011;8798;51.938;4.348;2022-09-06T07:11:04;4.10;;;3.33;;
17361;SDS011;8798;51.938;4.348;2022-09-06T07:13:33;5.40;;;3.37;;
17361;SDS011;8798;51.938;4.348;2022-09-06T07:16:09;5.70;;;3.47;;
17361;SDS011;8798;51.938;4.348;2022-09-06T07:18:38;4.97;;;3.47;;
17361;SDS011;8798;51.938;4.348;2022-09-06T07:21:08;9.97;;;3.70;;
17361;SDS011;8798;51.938;4.348;2022-09-06T07:23:57;4.30;;;3.17;;
17361;SDS011;8798;51.938;4.348;2022-09-06T07:26:34;7.03;;;3.63;;
17361;SDS011;8798;51.938;4.348;2022-09-06T07:29:04;5.43;;;3.87;;
17361;SDS011;8798;51.938;4.348;2022-09-06T07:31:34;6.10;;;3.70;;
17361;SDS011;8798;51.938;4.348;2022-09-06T07:34:24;5.83;;;3.40;;
17361;SDS011;8798;51.938;4.348;2022-09-06T07:36:52;5.90;;;3.30;;
17361;SDS011;8798;51.938;4.348;2022-09-06T07:39:20;6.73;;;3.73;;
17361;SDS011;8798;51.938;4.348;2022-09-06T07:41:48;5.90;;;3.67;;
17361;SDS011;8798;51.938;4.348;2022-09-06T07:44:16;10.47;;;3.43;;
17361;SDS011;8798;51.938;4.348;2022-09-06T07:46:45;5.17;;;3.80;;
17361;SDS011;8798;51.938;4.348;2022-09-06T07:49:13;7.70;;;4.13;;
17361;SDS011;8798;51.938;4.348;2022-09-06T07:51:40;6.50;;;3.93;;
17361;SDS011;8798;51.938;4.348;2022-09-06T07:54:09;7.27;;;4.13;;
17361;SDS011;8798;51.938;4.348;2022-09-06T07:56:56;5.77;;;3.67;;
17361;SDS011;8798;51.938;4.348;2022-09-06T07:59:23;6.87;;;4.90;;
17361;SDS011;8798;51.938;4.348;2022-09-06T08:01:54;6.43;;;3.87;;
17361;SDS011;8798;51.938;4.348;2022-09-06T08:04:21;7.07;;;4.60;;
17361;SDS011;8798;51.938;4.348;2022-09-06T08:06:49;5.30;;;4.10;;
17361;SDS011;8798;51.938;4.348;2022-09-06T08:09:37;6.23;;;4.07;;
17361;SDS011;8798;51.938;4.348;2022-09-06T08:12:05;7.17;;;4.37;;
17361;SDS011;8798;51.938;4.348;2022-09-06T08:14:34;5.23;;;4.00;;
17361;SDS011;8798;51.938;4.348;2022-09-06T08:17:03;5.47;;;4.07;;
17361;SDS011;8798;51.938;4.348;2022-09-06T08:19:31;5.53;;;4.03;;
17361;SDS011;8798;51.938;4.348;2022-09-06T08:21:59;8.30;;;4.47;;
17361;SDS011;8798;51.938;4.348;2022-09-06T08:24:27;6.93;;;4.57;;
17361;SDS011;8798;51.938;4.348;2022-09-06T08:26:55;8.27;;;4.47;;
17361;SDS011;8798;51.938;4.348;2022-09-06T08:29:23;7.13;;;4.20;;
17361;SDS011;8798;51.938;4.348;2022-09-06T08:31:52;7.33;;;5.00;;
17361;SDS011;8798;51.938;4.348;2022-09-06T08:34:21;9.67;;;4.77;;
17361;SDS011;8798;51.938;4.348;2022-09-06T08:36:49;5.90;;;4.03;;
17361;SDS011;8798;51.938;4.348;2022-09-06T08:39:17;5.97;;;3.80;;
17361;SDS011;8798;51.938;4.348;2022-09-06T08:41:46;8.00;;;3.97;;
17361;SDS011;8798;51.938;4.348;2022-09-06T08:44:19;4.40;;;3.23;;
17361;SDS011;8798;51.938;4.348;2022-09-06T08:47:10;5.77;;;3.43;;
17361;SDS011;8798;51.938;4.348;2022-09-06T08:49:41;4.13;;;3.57;;
17361;SDS011;8798;51.938;4.348;2022-09-06T08:52:19;5.73;;;3.80;;
17361;SDS011;8798;51.938;4.348;2022-09-06T08:54:57;5.40;;;3.57;;
17361;SDS011;8798;51.938;4.348;2022-09-06T08:57:37;6.67;;;3.80;;
17361;SDS011;8798;51.938;4.348;2022-09-06T09:00:16;5.77;;;3.50;;
17361;SDS011;8798;51.938;4.348;2022-09-06T09:02:46;5.33;;;3.70;;
17361;SDS011;8798;51.938;4.348;2022-09-06T09:05:19;7.40;;;3.93;;
17361;SDS011;8798;51.938;4.348;2022-09-06T09:07:53;6.17;;;4.10;;
17361;SDS011;8798;51.938;4.348;2022-09-06T09:10:29;5.23;;;3.97;;
17361;SDS011;8798;51.938;4.348;2022-09-06T09:13:01;6.87;;;4.40;;
17361;SDS011;8798;51.938;4.348;2022-09-06T09:15:33;6.90;;;4.30;;
17361;SDS011;8798;51.938;4.348;2022-09-06T09:18:05;6.73;;;4.17;;
17361;SDS011;8798;51.938;4.348;2022-09-06T09:20:35;5.67;;;4.00;;
17361;SDS011;8798;51.938;4.348;2022-09-06T09:23:04;9.47;;;4.33;;
17361;SDS011;8798;51.938;4.348;2022-09-06T09:25:31;6.33;;;4.03;;
17361;SDS011;8798;51.938;4.348;2022-09-06T09:28:01;7.57;;;4.37;;
17361;SDS011;8798;51.938;4.348;2022-09-06T09:30:43;5.67;;;4.50;;
17361;SDS011;8798;51.938;4.348;2022-09-06T09:33:21;6.87;;;4.40;;
17361;SDS011;8798;51.938;4.348;2022-09-06T09:35:55;5.57;;;3.70;;
17361;SDS011;8798;51.938;4.348;2022-09-06T09:38:26;5.73;;;4.30;;
17361;SDS011;8798;51.938;4.348;2022-09-06T09:40:56;6.20;;;4.10;;
17361;SDS011;8798;51.938;4.348;2022-09-06T09:43:27;9.03;;;4.30;;
17361;SDS011;8798;51.938;4.348;2022-09-06T09:46:07;6.22;;;3.70;;
17361;SDS011;8798;51.938;4.348;2022-09-06T09:48:58;6.10;;;4.10;;
17361;SDS011;8798;51.938;4.348;2022-09-06T09:51:30;6.90;;;3.90;;
17361;SDS011;8798;51.938;4.348;2022-09-06T09:53:59;7.72;;;4.45;;
17361;SDS011;8798;51.938;4.348;2022-09-06T09:56:32;9.77;;;4.27;;
17361;SDS011;8798;51.938;4.348;2022-09-06T09:59:05;6.10;;;4.00;;
17361;SDS011;8798;51.938;4.348;2022-09-06T10:01:42;5.40;;;3.60;;
17361;SDS011;8798;51.938;4.348;2022-09-06T10:04:10;7.30;;;4.13;;
17361;SDS011;8798;51.938;4.348;2022-09-06T10:07:11;4.70;;;3.30;;
17361;SDS011;8798;51.938;4.348;2022-09-06T10:09:41;5.78;;;4.05;;
17361;SDS011;8798;51.938;4.348;2022-09-06T10:12:12;5.80;;;3.87;;
17361;SDS011;8798;51.938;4.348;2022-09-06T10:14:44;6.33;;;4.27;;
17361;SDS011;8798;51.938;4.348;2022-09-06T10:17:19;6.37;;;4.23;;
17361;SDS011;8798;51.938;4.348;2022-09-06T10:19:54;5.70;;;4.47;;
17361;SDS011;8798;51.938;4.348;2022-09-06T10:22:28;8.13;;;4.80;;
17361;SDS011;8798;51.938;4.348;2022-09-06T10:25:02;7.27;;;4.70;;
17361;SDS011;8798;51.938;4.348;2022-09-06T10:27:48;8.50;;;5.10;;
17361;SDS011;8798;51.938;4.348;2022-09-06T10:31:01;9.60;;;5.27;;
17361;SDS011;8798;51.938;4.348;2022-09-06T10:33:38;7.10;;;4.63;;
17361;SDS011;8798;51.938;4.348;2022-09-06T10:36:19;6.40;;;4.80;;
17361;SDS011;8798;51.938;4.348;2022-09-06T10:38:57;6.65;;;4.70;;
17361;SDS011;8798;51.938;4.348;2022-09-06T10:44:34;8.20;;;5.22;;
17361;SDS011;8798;51.938;4.348;2022-09-06T10:47:14;8.32;;;5.10;;
17361;SDS011;8798;51.938;4.348;2022-09-06T10:49:43;7.95;;;4.85;;
17361;SDS011;8798;51.938;4.348;2022-09-06T10:52:16;7.38;;;4.28;;
17361;SDS011;8798;51.938;4.348;2022-09-06T10:54:50;10.07;;;4.53;;
17361;SDS011;8798;51.938;4.348;2022-09-06T10:57:23;5.55;;;3.70;;
17361;SDS011;8798;51.938;4.348;2022-09-06T11:00:17;6.95;;;4.95;;
17361;SDS011;8798;51.938;4.348;2022-09-06T11:02:46;6.32;;;3.90;;
17361;SDS011;8798;51.938;4.348;2022-09-06T11:05:43;10.67;;;4.43;;
17361;SDS011;8798;51.938;4.348;2022-09-06T11:08:15;8.85;;;4.53;;
17361;SDS011;8798;51.938;4.348;2022-09-06T11:11:12;6.75;;;4.07;;
17361;SDS011;8798;51.938;4.348;2022-09-06T11:13:44;7.07;;;4.50;;
17361;SDS011;8798;51.938;4.348;2022-09-06T11:16:14;5.97;;;3.85;;
17361;SDS011;8798;51.938;4.348;2022-09-06T11:18:46;6.50;;;3.78;;
17361;SDS011;8798;51.938;4.348;2022-09-06T11:24:27;6.05;;;3.63;;
17361;SDS011;8798;51.938;4.348;2022-09-06T11:27:10;5.60;;;2.90;;
17361;SDS011;8798;51.938;4.348;2022-09-06T11:29:43;7.38;;;3.60;;
17361;SDS011;8798;51.938;4.348;2022-09-06T11:32:26;5.80;;;3.03;;
17361;SDS011;8798;51.938;4.348;2022-09-06T11:34:58;6.47;;;2.20;;
17361;SDS011;8798;51.938;4.348;2022-09-06T11:37:30;4.25;;;2.05;;
17361;SDS011;8798;51.938;4.348;2022-09-06T11:40:04;4.88;;;1.75;;
17361;SDS011;8798;51.938;4.348;2022-09-06T11:43:13;4.20;;;1.90;;
17361;SDS011;8798;51.938;4.348;2022-09-06T11:45:44;5.45;;;2.30;;
17361;SDS011;8798;51.938;4.348;2022-09-06T11:48:30;4.20;;;1.88;;
17361;SDS011;8798;51.938;4.348;2022-09-06T11:51:03;4.38;;;1.45;;
17361;SDS011;8798;51.938;4.348;2022-09-06T11:56:30;5.30;;;1.80;;
17361;SDS011;8798;51.938;4.348;2022-09-06T11:59:08;4.88;;;2.10;;
17361;SDS011;8798;51.938;4.348;2022-09-06T12:01:58;4.45;;;1.80;;
17361;SDS011;8798;51.938;4.348;2022-09-06T12:13:34;8.13;;;2.05;;
17361;SDS011;8798;51.938;4.348;2022-09-06T12:16:08;4.65;;;1.90;;
17361;SDS011;8798;51.938;4.348;2022-09-06T12:18:57;4.20;;;1.70;;
17361;SDS011;8798;51.938;4.348;2022-09-06T12:27:21;5.43;;;1.73;;
17361;SDS011;8798;51.938;4.348;2022-09-06T12:29:51;5.40;;;1.80;;
17361;SDS011;8798;51.938;4.348;2022-09-06T12:32:25;3.13;;;1.63;;
17361;SDS011;8798;51.938;4.348;2022-09-06T12:35:02;3.97;;;1.73;;
17361;SDS011;8798;51.938;4.348;2022-09-06T12:37:53;2.13;;;1.20;;
17361;SDS011;8798;51.938;4.348;2022-09-06T12:40:22;3.97;;;1.17;;
17361;SDS011;8798;51.938;4.348;2022-09-06T12:42:54;3.75;;;1.25;;
17361;SDS011;8798;51.938;4.348;2022-09-06T12:45:23;4.85;;;1.70;;
17361;SDS011;8798;51.938;4.348;2022-09-06T12:48:04;3.58;;;2.10;;
17361;SDS011;8798;51.938;4.348;2022-09-06T12:50:34;5.72;;;2.15;;
17361;SDS011;8798;51.938;4.348;2022-09-06T12:53:03;4.45;;;1.77;;
17361;SDS011;8798;51.938;4.348;2022-09-06T12:55:55;5.32;;;1.90;;
17361;SDS011;8798;51.938;4.348;2022-09-06T12:58:29;5.50;;;1.75;;
17361;SDS011;8798;51.938;4.348;2022-09-06T13:00:59;4.28;;;1.65;;
17361;SDS011;8798;51.938;4.348;2022-09-06T13:03:33;2.55;;;1.55;;
17361;SDS011;8798;51.938;4.348;2022-09-06T13:06:06;3.00;;;1.58;;
17361;SDS011;8798;51.938;4.348;2022-09-06T13:08:39;3.63;;;1.35;;
17361;SDS011;8798;51.938;4.348;2022-09-06T13:11:12;3.22;;;1.60;;
17361;SDS011;8798;51.938;4.348;2022-09-06T13:13:45;3.08;;;1.60;;
17361;SDS011;8798;51.938;4.348;2022-09-06T13:16:21;4.22;;;1.90;;
17361;SDS011;8798;51.938;4.348;2022-09-06T13:18:52;4.57;;;1.60;;
17361;SDS011;8798;51.938;4.348;2022-09-06T13:21:24;4.22;;;1.38;;
17361;SDS011;8798;51.938;4.348;2022-09-06T13:23:54;4.60;;;1.67;;
17361;SDS011;8798;51.938;4.348;2022-09-06T13:26:31;2.85;;;1.20;;
17361;SDS011;8798;51.938;4.348;2022-09-06T13:29:10;5.90;;;1.40;;
17361;SDS011;8798;51.938;4.348;2022-09-06T13:31:48;2.60;;;1.20;;
17361;SDS011;8798;51.938;4.348;2022-09-06T13:34:20;2.88;;;1.15;;
17361;SDS011;8798;51.938;4.348;2022-09-06T13:36:50;2.42;;;1.27;;
17361;SDS011;8798;51.938;4.348;2022-09-06T13:39:29;5.78;;;1.42;;
17361;SDS011;8798;51.938;4.348;2022-09-06T13:41:59;1.67;;;0.98;;
17361;SDS011;8798;51.938;4.348;2022-09-06T13:44:29;3.33;;;1.25;;
17361;SDS011;8798;51.938;4.348;2022-09-06T13:46:58;2.72;;;1.08;;
17361;SDS011;8798;51.938;4.348;2022-09-06T13:49:27;2.95;;;1.02;;
17361;SDS011;8798;51.938;4.348;2022-09-06T13:51:59;2.45;;;0.90;;
17361;SDS011;8798;51.938;4.348;2022-09-06T13:54:28;2.40;;;1.10;;
17361;SDS011;8798;51.938;4.348;2022-09-06T13:56:57;4.22;;;1.52;;
17361;SDS011;8798;51.938;4.348;2022-09-06T13:59:27;4.07;;;1.30;;
17361;SDS011;8798;51.938;4.348;2022-09-06T14:01:57;1.60;;;0.90;;
17361;SDS011;8798;51.938;4.348;2022-09-06T14:04:28;2.75;;;1.17;;
17361;SDS011;8798;51.938;4.348;2022-09-06T14:06:57;2.72;;;0.73;;
17361;SDS011;8798;51.938;4.348;2022-09-06T14:09:25;1.50;;;0.75;;
17361;SDS011;8798;51.938;4.348;2022-09-06T14:11:53;1.98;;;0.85;;
17361;SDS011;8798;51.938;4.348;2022-09-06T14:14:21;2.10;;;0.63;;
17361;SDS011;8798;51.938;4.348;2022-09-06T14:16:49;3.00;;;0.98;;
17361;SDS011;8798;51.938;4.348;2022-09-06T14:19:18;2.35;;;0.98;;
17361;SDS011;8798;51.938;4.348;2022-09-06T14:21:47;2.25;;;1.00;;
17361;SDS011;8798;51.938;4.348;2022-09-06T14:24:14;3.75;;;1.13;;
17361;SDS011;8798;51.938;4.348;2022-09-06T14:26:42;1.63;;;0.75;;
17361;SDS011;8798;51.938;4.348;2022-09-06T14:29:10;2.58;;;0.80;;
17361;SDS011;8798;51.938;4.348;2022-09-06T14:31:38;3.25;;;1.00;;
17361;SDS011;8798;51.938;4.348;2022-09-06T14:34:06;1.65;;;0.90;;
17361;SDS011;8798;51.938;4.348;2022-09-06T14:36:33;2.15;;;0.90;;
17361;SDS011;8798;51.938;4.348;2022-09-06T14:39:03;1.33;;;0.88;;
17361;SDS011;8798;51.938;4.348;2022-09-06T14:41:31;2.38;;;0.90;;
17361;SDS011;8798;51.938;4.348;2022-09-06T14:43:59;2.55;;;1.17;;
17361;SDS011;8798;51.938;4.348;2022-09-06T14:46:27;1.85;;;0.60;;
17361;SDS011;8798;51.938;4.348;2022-09-06T14:48:55;2.50;;;0.90;;
17361;SDS011;8798;51.938;4.348;2022-09-06T14:51:24;1.70;;;0.95;;
17361;SDS011;8798;51.938;4.348;2022-09-06T14:53:53;3.30;;;1.00;;
17361;SDS011;8798;51.938;4.348;2022-09-06T14:56:24;2.30;;;1.00;;
17361;SDS011;8798;51.938;4.348;2022-09-06T14:58:52;2.75;;;1.00;;
17361;SDS011;8798;51.938;4.348;2022-09-06T15:01:23;2.45;;;0.95;;
17361;SDS011;8798;51.938;4.348;2022-09-06T15:03:54;2.70;;;0.70;;
17361;SDS011;8798;51.938;4.348;2022-09-06T15:06:24;2.60;;;0.85;;
17361;SDS011;8798;51.938;4.348;2022-09-06T15:08:53;3.75;;;1.00;;
17361;SDS011;8798;51.938;4.348;2022-09-06T15:11:30;2.08;;;0.90;;
17361;SDS011;8798;51.938;4.348;2022-09-06T15:13:59;1.15;;;0.77;;
17361;SDS011;8798;51.938;4.348;2022-09-06T15:16:29;1.10;;;0.80;;
17361;SDS011;8798;51.938;4.348;2022-09-06T15:18:58;2.03;;;1.00;;
17361;SDS011;8798;51.938;4.348;2022-09-06T15:21:28;2.50;;;0.90;;
17361;SDS011;8798;51.938;4.348;2022-09-06T15:23:57;2.83;;;1.00;;
17361;SDS011;8798;51.938;4.348;2022-09-06T15:26:25;2.30;;;1.00;;
17361;SDS011;8798;51.938;4.348;2022-09-06T15:28:54;1.67;;;1.00;;
17361;SDS011;8798;51.938;4.348;2022-09-06T15:31:22;2.42;;;1.00;;
17361;SDS011;8798;51.938;4.348;2022-09-06T15:33:49;2.22;;;0.90;;
17361;SDS011;8798;51.938;4.348;2022-09-06T15:36:18;2.90;;;0.80;;
17361;SDS011;8798;51.938;4.348;2022-09-06T15:38:47;3.20;;;0.93;;
17361;SDS011;8798;51.938;4.348;2022-09-06T15:41:18;1.95;;;0.80;;
17361;SDS011;8798;51.938;4.348;2022-09-06T15:43:47;2.95;;;1.00;;
17361;SDS011;8798;51.938;4.348;2022-09-06T15:46:18;1.45;;;0.70;;
17361;SDS011;8798;51.938;4.348;2022-09-06T15:48:49;2.83;;;0.90;;
17361;SDS011;8798;51.938;4.348;2022-09-06T15:51:19;1.83;;;0.90;;
17361;SDS011;8798;51.938;4.348;2022-09-06T15:53:47;2.45;;;0.82;;
17361;SDS011;8798;51.938;4.348;2022-09-06T15:56:15;2.33;;;0.77;;
17361;SDS011;8798;51.938;4.348;2022-09-06T15:58:44;3.03;;;0.80;;
17361;SDS011;8798;51.938;4.348;2022-09-06T16:01:12;3.78;;;0.80;;
17361;SDS011;8798;51.938;4.348;2022-09-06T16:03:44;3.80;;;0.90;;